createdAt,value
2022-12-15T00:01:36.490Z,393.63504
2022-12-15T00:06:38.406Z,393.63504
2022-12-15T00:11:40.088Z,390.37681
2022-12-15T00:16:41.547Z,390.37681
2022-12-15T00:21:43.163Z,387.16547
2022-12-15T00:26:44.676Z,393.63504
2022-12-15T00:31:46.244Z,396.94118
2022-12-15T00:36:49.921Z,390.37681
2022-12-15T00:41:51.664Z,396.94118
2022-12-15T00:46:53.296Z,387.16547
2022-12-15T00:51:55.284Z,384
2022-12-15T00:56:56.728Z,380.87943
2022-12-15T01:01:58.582Z,390.37681
2022-12-15T01:07:00.748Z,387.16547
2022-12-15T01:12:02.465Z,393.63504
2022-12-15T01:17:04.894Z,393.63504
2022-12-15T01:22:06.626Z,403.70149
2022-12-15T01:27:08.384Z,407.15789
2022-12-15T01:32:10.087Z,403.70149
2022-12-15T01:37:12.007Z,393.63504
2022-12-15T01:42:13.810Z,390.37681
2022-12-15T01:47:15.724Z,400.2963
2022-12-15T01:52:17.552Z,407.15789
2022-12-15T01:57:19.366Z,393.63504
2022-12-15T02:02:21.241Z,390.37681
2022-12-15T02:07:23.288Z,384
2022-12-15T02:12:24.866Z,400.2963
2022-12-15T02:17:26.618Z,407.15789
2022-12-15T02:22:28.848Z,393.63504
2022-12-15T02:27:30.902Z,390.37681
2022-12-15T02:32:32.707Z,393.63504
2022-12-15T02:37:34.795Z,414.22901
2022-12-15T02:42:36.610Z,414.22901
2022-12-15T02:47:38.379Z,393.63504
2022-12-15T02:52:39.882Z,393.63504
2022-12-15T02:57:41.393Z,390.37681
2022-12-15T03:02:43.082Z,390.37681
2022-12-15T03:07:45.134Z,380.87943
2022-12-15T03:12:51.672Z,368.82759
2022-12-15T03:17:53.528Z,371.77778
2022-12-15T03:22:55.302Z,384
2022-12-15T03:27:57.037Z,425.25
2022-12-15T03:32:59.082Z,414.22901
2022-12-15T03:38:01.285Z,403.70149
2022-12-15T03:43:03.050Z,407.15789
2022-12-15T03:48:04.831Z,380.87943
2022-12-15T03:53:06.570Z,380.87943
2022-12-15T03:58:08.064Z,344
2022-12-15T04:03:09.756Z,275.1828
2022-12-15T04:08:11.582Z,269.92593
2022-12-15T04:13:13.223Z,273.41176
2022-12-15T04:18:14.723Z,294
2022-12-15T04:23:16.187Z,321.91411
2022-12-15T04:28:17.709Z,317.33333
2022-12-15T04:33:19.360Z,310.66667
2022-12-15T04:38:21.165Z,354.66667
2022-12-15T04:43:22.687Z,317.33333
2022-12-15T04:48:24.268Z,315.08434
2022-12-15T04:53:25.847Z,319.60976
2022-12-15T04:58:27.546Z,349.26316
2022-12-15T05:03:29.092Z,374.76923
2022-12-15T05:08:30.763Z,360.21622
2022-12-15T05:13:32.688Z,346.61438
2022-12-15T05:18:34.508Z,363.04762
2022-12-15T05:23:36.008Z,349.26316
2022-12-15T05:28:37.560Z,387.16547
2022-12-15T05:33:39.186Z,390.37681
2022-12-15T05:38:40.976Z,436.8
2022-12-15T05:43:42.504Z,417.84615
2022-12-15T05:48:44.067Z,396.94118
2022-12-15T05:53:45.717Z,417.84615
2022-12-15T05:58:47.499Z,425.25
2022-12-15T06:03:48.955Z,440.77419
2022-12-15T06:08:51.140Z,461.64706
2022-12-15T06:13:53.098Z,417.84615
2022-12-15T06:18:54.878Z,475.03448
2022-12-15T06:23:56.467Z,425.25
2022-12-15T06:28:58.006Z,432.88889
2022-12-15T06:34:01.695Z,484.35088
2022-12-15T06:39:04.326Z,470.49573
2022-12-15T06:44:05.854Z,530.66667
2022-12-15T06:49:07.323Z,498.95495
2022-12-15T06:54:09.026Z,494
2022-12-15T06:59:10.504Z,489.13274
2022-12-15T07:04:12.460Z,519.70093
2022-12-15T07:09:14.384Z,484.35088
2022-12-15T07:14:16.271Z,530.66667
2022-12-15T07:19:18.042Z,530.66667
2022-12-15T07:24:19.865Z,572.57143
2022-12-15T07:29:23.733Z,613.56522
2022-12-15T07:34:25.613Z,652.04598
2022-12-15T07:39:27.530Z,644
2022-12-15T07:44:29.318Z,668.70588
2022-12-15T07:49:31.053Z,686.16867
2022-12-15T07:54:32.852Z,652.04598
2022-12-15T07:59:34.602Z,723.74684
2022-12-15T08:04:36.478Z,695.21951
2022-12-15T08:09:38.588Z,714
2022-12-15T08:14:40.333Z,686.16867
2022-12-15T08:19:41.888Z,677.33333
2022-12-15T08:24:43.364Z,714
2022-12-15T08:29:52.186Z,714
2022-12-15T08:34:54.262Z,677.33333
2022-12-15T08:39:55.960Z,695.21951
2022-12-15T08:44:57.524Z,733.74359
2022-12-15T08:49:59.243Z,799.55556
2022-12-15T08:55:01.273Z,677.33333
2022-12-15T09:00:03.069Z,668.70588
2022-12-15T09:05:04.915Z,714
2022-12-15T09:10:06.864Z,733.74359
2022-12-15T09:15:08.648Z,695.21951
2022-12-15T09:20:12.259Z,733.74359
2022-12-15T09:25:17.260Z,714
2022-12-15T09:30:19.084Z,704.49383
2022-12-15T09:35:20.853Z,695.21951
2022-12-15T09:40:22.753Z,714
2022-12-15T09:45:24.633Z,754.52632
2022-12-15T09:50:26.507Z,695.21951
2022-12-15T09:55:28.314Z,677.33333
2022-12-15T10:00:30.274Z,677.33333
2022-12-15T10:05:57.349Z,660.27907
2022-12-15T10:11:08.304Z,652.04598
2022-12-15T10:16:09.840Z,652.04598
2022-12-15T10:21:11.607Z,636.13483
2022-12-15T10:26:13.442Z,620.92308
2022-12-15T10:31:15.440Z,628.44444
2022-12-15T10:36:17.393Z,599.31915
2022-12-15T10:41:19.377Z,652.04598
2022-12-15T10:46:21.469Z,660.27907
2022-12-15T10:51:23.304Z,668.70588
2022-12-15T10:56:32.283Z,695.21951
2022-12-15T11:01:35.526Z,686.16867
2022-12-15T11:06:37.646Z,723.74684
2022-12-15T11:11:45.121Z,714
2022-12-15T11:16:46.975Z,686.16867
2022-12-15T11:21:50.435Z,714
2022-12-15T11:26:52.131Z,668.70588
2022-12-15T11:31:53.825Z,677.33333
2022-12-15T11:36:55.405Z,733.74359
2022-12-15T11:41:57.336Z,636.13483
2022-12-15T11:46:59.231Z,765.33333
2022-12-15T11:52:01.028Z,677.33333
2022-12-15T11:57:02.981Z,704.49383
2022-12-15T12:02:04.725Z,744
2022-12-15T12:07:06.519Z,744
2022-12-15T12:12:08.835Z,714
2022-12-15T12:17:10.743Z,677.33333
2022-12-15T12:22:12.463Z,686.16867
2022-12-15T12:27:14.355Z,686.16867
2022-12-15T12:32:16.063Z,636.13483
2022-12-15T12:37:17.876Z,714
2022-12-15T12:42:19.969Z,660.27907
2022-12-15T12:47:21.612Z,644
2022-12-15T12:52:23.356Z,652.04598
2022-12-15T12:57:25.058Z,668.70588
2022-12-15T13:02:26.992Z,652.04598
2022-12-15T13:07:29.016Z,644
2022-12-15T13:12:50.815Z,686.16867
2022-12-15T13:17:53.270Z,686.16867
2022-12-15T13:22:54.885Z,620.92308
2022-12-15T13:27:56.460Z,560
2022-12-15T13:32:58.944Z,668.70588
2022-12-15T13:38:00.791Z,636.13483
2022-12-15T13:43:03.040Z,592.42105
2022-12-15T13:48:04.865Z,636.13483
2022-12-15T15:03:10.458Z,606.36559
2022-12-15T15:08:17.705Z,636.13483
2022-12-15T15:13:19.461Z,660.27907
2022-12-15T15:18:21.397Z,644
2022-12-15T15:23:23.039Z,628.44444
2022-12-15T15:28:25.103Z,606.36559
2022-12-15T15:33:27.247Z,599.31915
2022-12-15T15:38:29.428Z,606.36559
2022-12-15T15:43:31.448Z,636.13483
2022-12-15T15:48:33.753Z,668.70588
2022-12-15T15:53:36.125Z,652.04598
2022-12-15T15:58:37.893Z,636.13483
2022-12-15T16:03:39.868Z,644
2022-12-15T16:08:42.000Z,628.44444
2022-12-15T16:13:43.561Z,628.44444
2022-12-15T16:18:45.067Z,620.92308
2022-12-15T16:23:46.550Z,636.13483
2022-12-15T16:28:48.013Z,606.36559
2022-12-15T16:33:49.625Z,613.56522
2022-12-15T16:38:51.653Z,652.04598
2022-12-15T16:43:53.645Z,636.13483
2022-12-15T16:48:55.513Z,644
2022-12-15T16:53:57.194Z,585.66667
2022-12-15T16:59:30.765Z,566.22222
2022-12-15T17:04:34.078Z,592.42105
2022-12-15T17:09:36.438Z,660.27907
2022-12-15T17:14:38.378Z,572.57143
2022-12-15T17:19:52.603Z,530.66667
2022-12-15T17:25:07.338Z,547.92157
2022-12-15T17:30:09.202Z,553.90099
2022-12-15T17:35:10.670Z,530.66667
2022-12-15T17:40:12.451Z,525.13208
2022-12-15T17:45:14.223Z,498.95495
2022-12-15T17:50:15.714Z,470.49573
2022-12-15T17:55:17.511Z,479.65217
2022-12-15T18:00:19.021Z,453.09091
2022-12-15T18:05:20.704Z,448.91803
2022-12-15T18:10:22.712Z,470.49573
2022-12-15T18:15:24.213Z,498.95495
2022-12-15T18:20:25.880Z,479.65217
2022-12-15T18:25:27.319Z,470.49573
2022-12-15T18:30:29.343Z,466.0339
2022-12-15T18:35:31.102Z,440.77419
2022-12-15T18:40:32.864Z,457.33333
2022-12-15T18:45:34.664Z,432.88889
2022-12-15T18:50:36.261Z,421.51938
2022-12-15T18:55:37.956Z,429.03937
2022-12-15T19:00:39.506Z,425.25
2022-12-15T19:05:41.212Z,448.91803
2022-12-15T19:10:43.080Z,444.81301
2022-12-15T19:15:44.630Z,444.81301
2022-12-15T19:20:46.077Z,440.77419
2022-12-15T19:25:47.757Z,432.88889
2022-12-15T19:30:49.327Z,421.51938
2022-12-15T19:35:51.192Z,410.66667
2022-12-15T19:40:53.016Z,421.51938
2022-12-15T19:45:54.874Z,400.2963
2022-12-15T19:50:56.544Z,414.22901
2022-12-15T19:55:58.294Z,384
2022-12-15T20:00:59.864Z,393.63504
2022-12-15T20:06:01.421Z,425.25
2022-12-15T20:11:03.650Z,425.25
2022-12-15T20:16:05.325Z,410.66667
2022-12-15T20:21:06.842Z,417.84615
2022-12-15T20:26:08.409Z,417.84615
2022-12-15T20:31:09.881Z,417.84615
2022-12-15T20:36:11.301Z,440.77419
2022-12-15T20:41:13.069Z,440.77419
2022-12-15T20:46:14.584Z,457.33333
2022-12-15T20:51:16.020Z,444.81301
2022-12-15T20:56:17.510Z,444.81301
2022-12-15T21:01:19.378Z,432.88889
2022-12-15T21:06:21.357Z,432.88889
2022-12-15T21:11:23.570Z,425.25
2022-12-15T21:16:25.440Z,417.84615
2022-12-15T21:21:27.441Z,417.84615
2022-12-15T21:26:29.526Z,407.15789
2022-12-15T21:31:31.443Z,387.16547
2022-12-15T21:36:33.445Z,374.76923
2022-12-15T21:41:35.498Z,368.82759
2022-12-15T21:46:37.391Z,357.42282
2022-12-15T21:51:39.316Z,346.61438
2022-12-15T21:56:41.425Z,365.91781
2022-12-15T22:01:43.383Z,390.37681
2022-12-15T22:06:50.089Z,407.15789
2022-12-15T22:11:52.802Z,440.77419
2022-12-15T22:16:54.250Z,466.0339
2022-12-15T22:21:56.374Z,475.03448
2022-12-15T22:26:57.841Z,479.65217
2022-12-15T22:31:59.545Z,498.95495
2022-12-15T22:37:01.039Z,498.95495
2022-12-15T22:42:02.889Z,504
2022-12-15T22:47:04.358Z,504
2022-12-15T22:52:05.827Z,504
2022-12-15T22:57:07.532Z,494
2022-12-15T23:02:09.288Z,504
2022-12-15T23:07:10.894Z,484.35088
2022-12-15T23:12:12.941Z,479.65217
2022-12-15T23:17:14.376Z,475.03448
2022-12-15T23:22:15.866Z,479.65217
2022-12-15T23:27:17.511Z,479.65217
2022-12-15T23:32:18.983Z,470.49573
2022-12-15T23:37:20.531Z,484.35088
2022-12-15T23:42:22.581Z,475.03448
2022-12-15T23:47:24.274Z,484.35088
2022-12-15T23:52:25.903Z,475.03448
2022-12-15T23:57:27.562Z,470.49573
